sensor_id;sensor_type;location;lat;lon;timestamp;pressure;altitude;pressure_sealevel;temperature;humidity
13734;BME280;43298;52.560;13.508;2023-01-01T00:00:12;100474.25;;;15.96;100.00
13734;BME280;43298;52.560;13.508;2023-01-01T00:02:38;100489.75;;;15.85;100.00
13734;BME280;43298;52.560;13.508;2023-01-01T00:05:05;100504.16;;;15.90;100.00
13734;BME280;43298;52.560;13.508;2023-01-01T00:07:31;100508.25;;;15.94;100.00
13734;BME280;43298;52.560;13.508;2023-01-01T00:09:57;100495.72;;;16.12;100.00
13734;BME280;43298;52.560;13.508;2023-01-01T00:12:41;100503.66;;;15.98;100.00
13734;BME280;43298;52.560;13.508;2023-01-01T00:15:07;100495.91;;;15.84;100.00
13734;BME280;43298;52.560;13.508;2023-01-01T00:17:33;100496.88;;;16.08;100.00
13734;BME280;43298;52.560;13.508;2023-01-01T00:19:59;100504.28;;;16.01;100.00
13734;BME280;43298;52.560;13.508;2023-01-01T00:22:25;100496.66;;;16.11;100.00
13734;BME280;43298;52.560;13.508;2023-01-01T00:24:51;100508.97;;;16.09;100.00
13734;BME280;43298;52.560;13.508;2023-01-01T00:27:17;100504.78;;;16.06;100.00
13734;BME280;43298;52.560;13.508;2023-01-01T00:29:43;100519.41;;;16.09;100.00
13734;BME280;43298;52.560;13.508;2023-01-01T00:32:08;100529.81;;;15.96;100.00
13734;BME280;43298;52.560;13.508;2023-01-01T00:34:36;100534.63;;;15.90;100.00
13734;BME280;43298;52.560;13.508;2023-01-01T00:37:02;100527.88;;;16.00;100.00
13734;BME280;43298;52.560;13.508;2023-01-01T00:39:28;100521.50;;;16.04;100.00
13734;BME280;43298;52.560;13.508;2023-01-01T00:41:54;100524.09;;;16.04;100.00
13734;BME280;43298;52.560;13.508;2023-01-01T00:44:20;100527.53;;;15.92;100.00
13734;BME280;43298;52.560;13.508;2023-01-01T00:46:46;100529.72;;;15.98;100.00
13734;BME280;43298;52.560;13.508;2023-01-01T00:49:12;100519.50;;;16.07;100.00
13734;BME280;43298;52.560;13.508;2023-01-01T00:51:37;100534.66;;;16.02;100.00
13734;BME280;43298;52.560;13.508;2023-01-01T00:54:03;100531.94;;;16.04;100.00
13734;BME280;43298;52.560;13.508;2023-01-01T00:56:29;100529.03;;;16.08;100.00
13734;BME280;43298;52.560;13.508;2023-01-01T00:58:55;100530.03;;;16.06;100.00
13734;BME280;43298;52.560;13.508;2023-01-01T01:01:21;100535.88;;;15.97;100.00
13734;BME280;43298;52.560;13.508;2023-01-01T01:03:46;100537.66;;;16.09;100.00
13734;BME280;43298;52.560;13.508;2023-01-01T01:06:15;100530.78;;;15.95;100.00
13734;BME280;43298;52.560;13.508;2023-01-01T01:08:45;100544.97;;;15.91;100.00
13734;BME280;43298;52.560;13.508;2023-01-01T01:11:21;100555.09;;;16.08;100.00
13734;BME280;43298;52.560;13.508;2023-01-01T01:13:50;100551.25;;;16.01;100.00
13734;BME280;43298;52.560;13.508;2023-01-01T01:16:19;100555.50;;;16.02;100.00
13734;BME280;43298;52.560;13.508;2023-01-01T01:18:48;100552.81;;;16.04;100.00
13734;BME280;43298;52.560;13.508;2023-01-01T01:21:17;100548.53;;;16.03;100.00
13734;BME280;43298;52.560;13.508;2023-01-01T01:23:43;100537.84;;;15.93;100.00
13734;BME280;43298;52.560;13.508;2023-01-01T01:26:22;100555.50;;;15.90;100.00
13734;BME280;43298;52.560;13.508;2023-01-01T01:28:49;100541.81;;;15.86;100.00
13734;BME280;43298;52.560;13.508;2023-01-01T01:31:19;100549.31;;;15.91;100.00
13734;BME280;43298;52.560;13.508;2023-01-01T01:33:47;100548.94;;;15.97;100.00
13734;BME280;43298;52.560;13.508;2023-01-01T01:36:14;100545.56;;;15.82;100.00
13734;BME280;43298;52.560;13.508;2023-01-01T01:38:40;100552.84;;;15.77;100.00
13734;BME280;43298;52.560;13.508;2023-01-01T01:41:07;100546.31;;;15.84;100.00
13734;BME280;43298;52.560;13.508;2023-01-01T01:49:09;100556.84;;;15.83;100.00
13734;BME280;43298;52.560;13.508;2023-01-01T01:51:40;100557.28;;;16.02;100.00
13734;BME280;43298;52.560;13.508;2023-01-01T01:54:11;100556.72;;;15.84;100.00
13734;BME280;43298;52.560;13.508;2023-01-01T01:56:54;100571.41;;;15.73;100.00
13734;BME280;43298;52.560;13.508;2023-01-01T01:59:26;100554.75;;;15.88;100.00
13734;BME280;43298;52.560;13.508;2023-01-01T02:01:55;100550.78;;;15.95;100.00
13734;BME280;43298;52.560;13.508;2023-01-01T02:04:21;100547.13;;;15.85;100.00
13734;BME280;43298;52.560;13.508;2023-01-01T02:06:48;100556.63;;;15.86;100.00
13734;BME280;43298;52.560;13.508;2023-01-01T02:09:15;100563.84;;;15.95;100.00
13734;BME280;43298;52.560;13.508;2023-01-01T02:11:41;100564.78;;;15.94;100.00
13734;BME280;43298;52.560;13.508;2023-01-01T02:14:07;100564.06;;;16.04;100.00
13734;BME280;43298;52.560;13.508;2023-01-01T02:16:46;100565.84;;;16.04;100.00
13734;BME280;43298;52.560;13.508;2023-01-01T02:30:25;100562.59;;;16.00;100.00
13734;BME280;43298;52.560;13.508;2023-01-01T02:32:59;100561.56;;;16.03;100.00
13734;BME280;43298;52.560;13.508;2023-01-01T02:35:32;100560.19;;;16.10;100.00
13734;BME280;43298;52.560;13.508;2023-01-01T02:38:19;100558.72;;;16.06;100.00
13734;BME280;43298;52.560;13.508;2023-01-01T02:40:49;100559.97;;;15.88;100.00
13734;BME280;43298;52.560;13.508;2023-01-01T02:43:16;100559.75;;;15.91;100.00
13734;BME280;43298;52.560;13.508;2023-01-01T02:45:42;100554.34;;;15.94;100.00
13734;BME280;43298;52.560;13.508;2023-01-01T02:48:53;100546.19;;;15.86;100.00
13734;BME280;43298;52.560;13.508;2023-01-01T02:57:03;100549.19;;;15.80;100.00
13734;BME280;43298;52.560;13.508;2023-01-01T03:00:13;100541.00;;;15.86;100.00
13734;BME280;43298;52.560;13.508;2023-01-01T03:03:43;100541.59;;;15.77;100.00
13734;BME280;43298;52.560;13.508;2023-01-01T03:06:38;100550.16;;;15.79;100.00
13734;BME280;43298;52.560;13.508;2023-01-01T03:09:23;100543.47;;;15.75;100.00
13734;BME280;43298;52.560;13.508;2023-01-01T03:12:30;100559.31;;;15.72;100.00
13734;BME280;43298;52.560;13.508;2023-01-01T03:18:35;100556.16;;;15.67;100.00
13734;BME280;43298;52.560;13.508;2023-01-01T03:21:04;100560.97;;;15.73;100.00
13734;BME280;43298;52.560;13.508;2023-01-01T03:23:40;100569.00;;;15.70;100.00
13734;BME280;43298;52.560;13.508;2023-01-01T03:26:11;100559.94;;;15.75;100.00
13734;BME280;43298;52.560;13.508;2023-01-01T03:28:53;100555.66;;;15.74;100.00
13734;BME280;43298;52.560;13.508;2023-01-01T03:31:24;100558.97;;;15.64;100.00
13734;BME280;43298;52.560;13.508;2023-01-01T03:34:07;100568.28;;;15.68;100.00
13734;BME280;43298;52.560;13.508;2023-01-01T03:36:39;100561.47;;;15.65;100.00
13734;BME280;43298;52.560;13.508;2023-01-01T03:44:38;100561.78;;;15.61;100.00
13734;BME280;43298;52.560;13.508;2023-01-01T03:47:08;100560.75;;;15.63;100.00
13734;BME280;43298;52.560;13.508;2023-01-01T03:49:34;100569.28;;;15.65;100.00
13734;BME280;43298;52.560;13.508;2023-01-01T03:55:07;100570.97;;;15.40;100.00
13734;BME280;43298;52.560;13.508;2023-01-01T03:58:20;100580.94;;;15.60;100.00
13734;BME280;43298;52.560;13.508;2023-01-01T04:01:13;100584.72;;;15.42;100.00
13734;BME280;43298;52.560;13.508;2023-01-01T04:03:41;100594.63;;;15.37;100.00
13734;BME280;43298;52.560;13.508;2023-01-01T04:06:09;100603.91;;;15.41;100.00
13734;BME280;43298;52.560;13.508;2023-01-01T04:08:36;100593.78;;;15.36;100.00
13734;BME280;43298;52.560;13.508;2023-01-01T04:11:08;100605.09;;;15.49;100.00
13734;BME280;43298;52.560;13.508;2023-01-01T04:13:56;100609.56;;;15.33;100.00
13734;BME280;43298;52.560;13.508;2023-01-01T04:16:22;100604.09;;;15.24;100.00
13734;BME280;43298;52.560;13.508;2023-01-01T04:18:48;100610.84;;;15.54;100.00
13734;BME280;43298;52.560;13.508;2023-01-01T04:21:14;100612.63;;;15.54;100.00
13734;BME280;43298;52.560;13.508;2023-01-01T04:23:39;100609.97;;;15.68;100.00
13734;BME280;43298;52.560;13.508;2023-01-01T04:26:15;100611.78;;;15.53;100.00
13734;BME280;43298;52.560;13.508;2023-01-01T04:28:41;100616.16;;;15.53;100.00
13734;BME280;43298;52.560;13.508;2023-01-01T04:31:09;100614.69;;;15.49;100.00
13734;BME280;43298;52.560;13.508;2023-01-01T04:33:36;100624.75;;;15.41;100.00
13734;BME280;43298;52.560;13.508;2023-01-01T04:36:08;100618.13;;;15.49;100.00
13734;BME280;43298;52.560;13.508;2023-01-01T04:38:35;100624.28;;;15.48;100.00
13734;BME280;43298;52.560;13.508;2023-01-01T04:41:03;100622.91;;;15.43;100.00
13734;BME280;43298;52.560;13.508;2023-01-01T04:43:30;100624.31;;;15.20;100.00
13734;BME280;43298;52.560;13.508;2023-01-01T04:46:04;100625.34;;;15.18;100.00
13734;BME280;43298;52.560;13.508;2023-01-01T04:48:31;100624.75;;;15.27;100.00
13734;BME280;43298;52.560;13.508;2023-01-01T04:51:02;100620.59;;;15.24;100.00
13734;BME280;43298;52.560;13.508;2023-01-01T04:53:32;100634.81;;;15.33;100.00
13734;BME280;43298;52.560;13.508;2023-01-01T04:56:10;100626.50;;;15.26;100.00
13734;BME280;43298;52.560;13.508;2023-01-01T04:58:38;100623.72;;;15.29;100.00
13734;BME280;43298;52.560;13.508;2023-01-01T05:01:05;100620.41;;;15.27;100.00
13734;BME280;43298;52.560;13.508;2023-01-01T05:03:32;100632.03;;;15.22;100.00
13734;BME280;43298;52.560;13.508;2023-01-01T05:06:09;100630.81;;;15.27;100.00
13734;BME280;43298;52.560;13.508;2023-01-01T05:08:38;100651.00;;;15.24;100.00
13734;BME280;43298;52.560;13.508;2023-01-01T05:11:11;100631.25;;;15.34;100.00
13734;BME280;43298;52.560;13.508;2023-01-01T05:13:39;100624.13;;;15.37;100.00
13734;BME280;43298;52.560;13.508;2023-01-01T05:16:08;100635.00;;;15.30;100.00
13734;BME280;43298;52.560;13.508;2023-01-01T05:18:36;100637.78;;;15.41;100.00
13734;BME280;43298;52.560;13.508;2023-01-01T05:21:19;100640.31;;;15.42;100.00
13734;BME280;43298;52.560;13.508;2023-01-01T05:23:45;100661.25;;;15.27;100.00
13734;BME280;43298;52.560;13.508;2023-01-01T05:26:17;100641.44;;;15.38;100.00
13734;BME280;43298;52.560;13.508;2023-01-01T05:28:45;100652.88;;;15.50;100.00
13734;BME280;43298;52.560;13.508;2023-01-01T05:31:18;100652.97;;;15.34;100.00
13734;BME280;43298;52.560;13.508;2023-01-01T05:33:44;100653.78;;;15.21;100.00
13734;BME280;43298;52.560;13.508;2023-01-01T05:36:16;100654.34;;;15.26;100.00
13734;BME280;43298;52.560;13.508;2023-01-01T05:38:42;100653.06;;;15.19;100.00
13734;BME280;43298;52.560;13.508;2023-01-01T05:41:11;100646.19;;;15.18;100.00
13734;BME280;43298;52.560;13.508;2023-01-01T05:43:37;100650.66;;;15.16;100.00
13734;BME280;43298;52.560;13.508;2023-01-01T05:46:19;100651.50;;;15.16;100.00
13734;BME280;43298;52.560;13.508;2023-01-01T05:48:46;100659.13;;;15.19;100.00
13734;BME280;43298;52.560;13.508;2023-01-01T05:51:18;100653.22;;;15.30;100.00
13734;BME280;43298;52.560;13.508;2023-01-01T05:53:44;100656.22;;;15.24;100.00
13734;BME280;43298;52.560;13.508;2023-01-01T05:56:12;100660.88;;;15.33;100.00
13734;BME280;43298;52.560;13.508;2023-01-01T05:58:38;100645.78;;;15.24;100.00
13734;BME280;43298;52.560;13.508;2023-01-01T06:01:27;100660.72;;;15.36;100.00
13734;BME280;43298;52.560;13.508;2023-01-01T06:03:55;100654.72;;;15.34;100.00
13734;BME280;43298;52.560;13.508;2023-01-01T06:06:25;100655.56;;;15.34;100.00
13734;BME280;43298;52.560;13.508;2023-01-01T06:09:00;100656.59;;;15.32;100.00
13734;BME280;43298;52.560;13.508;2023-01-01T06:11:26;100664.78;;;15.12;100.00
13734;BME280;43298;52.560;13.508;2023-01-01T06:13:58;100659.31;;;15.16;100.00
13734;BME280;43298;52.560;13.508;2023-01-01T06:16:26;100660.13;;;15.17;100.00
13734;BME280;43298;52.560;13.508;2023-01-01T06:18:52;100659.22;;;15.18;100.00
13734;BME280;43298;52.560;13.508;2023-01-01T06:21:24;100660.69;;;15.22;100.00
13734;BME280;43298;52.560;13.508;2023-01-01T06:23:50;100667.84;;;15.18;100.00
13734;BME280;43298;52.560;13.508;2023-01-01T06:26:20;100674.84;;;15.03;100.00
13734;BME280;43298;52.560;13.508;2023-01-01T06:28:47;100679.22;;;15.17;100.00
13734;BME280;43298;52.560;13.508;2023-01-01T06:31:16;100674.63;;;15.35;100.00
13734;BME280;43298;52.560;13.508;2023-01-01T06:33:42;100675.47;;;15.21;100.00
13734;BME280;43298;52.560;13.508;2023-01-01T06:36:11;100683.13;;;15.24;100.00
13734;BME280;43298;52.560;13.508;2023-01-01T06:38:41;100678.34;;;15.31;100.00
13734;BME280;43298;52.560;13.508;2023-01-01T06:41:13;100677.53;;;15.30;100.00
13734;BME280;43298;52.560;13.508;2023-01-01T06:43:39;100686.09;;;15.04;100.00
13734;BME280;43298;52.560;13.508;2023-01-01T06:46:13;100688.59;;;15.05;100.00
13734;BME280;43298;52.560;13.508;2023-01-01T06:48:40;100692.50;;;14.98;100.00
13734;BME280;43298;52.560;13.508;2023-01-01T06:51:16;100694.66;;;15.06;100.00
13734;BME280;43298;52.560;13.508;2023-01-01T06:53:42;100698.91;;;15.07;100.00
13734;BME280;43298;52.560;13.508;2023-01-01T06:56:08;100701.97;;;15.13;100.00
13734;BME280;43298;52.560;13.508;2023-01-01T06:58:34;100691.03;;;15.08;100.00
13734;BME280;43298;52.560;13.508;2023-01-01T07:01:13;100694.16;;;15.13;100.00
13734;BME280;43298;52.560;13.508;2023-01-01T07:03:40;100694.56;;;15.22;100.00
13734;BME280;43298;52.560;13.508;2023-01-01T07:06:07;100698.47;;;15.15;100.00
13734;BME280;43298;52.560;13.508;2023-01-01T07:08:34;100698.47;;;15.00;100.00
13734;BME280;43298;52.560;13.508;2023-01-01T07:11:00;100700.31;;;14.98;100.00
13734;BME280;43298;52.560;13.508;2023-01-01T07:13:28;100707.75;;;14.90;100.00
13734;BME280;43298;52.560;13.508;2023-01-01T07:15:55;100711.00;;;14.94;100.00
13734;BME280;43298;52.560;13.508;2023-01-01T07:18:22;100727.03;;;15.16;100.00
13734;BME280;43298;52.560;13.508;2023-01-01T07:20:57;100731.41;;;15.16;100.00
13734;BME280;43298;52.560;13.508;2023-01-01T07:23:24;100727.41;;;15.10;100.00
13734;BME280;43298;52.560;13.508;2023-01-01T07:25:52;100737.72;;;14.97;100.00
13734;BME280;43298;52.560;13.508;2023-01-01T07:28:19;100739.09;;;15.03;100.00
13734;BME280;43298;52.560;13.508;2023-01-01T07:30:45;100736.44;;;15.19;100.00
13734;BME280;43298;52.560;13.508;2023-01-01T07:33:14;100734.19;;;15.13;100.00
13734;BME280;43298;52.560;13.508;2023-01-01T07:35:40;100742.94;;;15.12;100.00
13734;BME280;43298;52.560;13.508;2023-01-01T07:38:07;100751.78;;;15.23;100.00
13734;BME280;43298;52.560;13.508;2023-01-01T07:40:33;100740.78;;;15.32;100.00
13734;BME280;43298;52.560;13.508;2023-01-01T07:42:59;100747.97;;;15.15;100.00
13734;BME280;43298;52.560;13.508;2023-01-01T07:45:24;100746.25;;;15.13;100.00
13734;BME280;43298;52.560;13.508;2023-01-01T07:47:53;100745.47;;;15.27;100.00
13734;BME280;43298;52.560;13.508;2023-01-01T07:50:21;100753.72;;;15.34;100.00
13734;BME280;43298;52.560;13.508;2023-01-01T07:52:47;100761.53;;;15.20;100.00
13734;BME280;43298;52.560;13.508;2023-01-01T07:55:18;100758.13;;;15.19;100.00
13734;BME280;43298;52.560;13.508;2023-01-01T07:57:45;100786.34;;;15.41;100.00
13734;BME280;43298;52.560;13.508;2023-01-01T08:00:14;100777.31;;;15.46;100.00
13734;BME280;43298;52.560;13.508;2023-01-01T08:02:40;100775.28;;;15.37;100.00
13734;BME280;43298;52.560;13.508;2023-01-01T08:05:06;100781.22;;;15.39;100.00
13734;BME280;43298;52.560;13.508;2023-01-01T08:07:32;100784.94;;;15.49;100.00
13734;BME280;43298;52.560;13.508;2023-01-01T08:09:58;100772.38;;;15.42;100.00
13734;BME280;43298;52.560;13.508;2023-01-01T08:12:25;100770.78;;;15.53;100.00
13734;BME280;43298;52.560;13.508;2023-01-01T08:14:51;100780.59;;;15.50;100.00
13734;BME280;43298;52.560;13.508;2023-01-01T08:17:17;100787.28;;;15.40;100.00
13734;BME280;43298;52.560;13.508;2023-01-01T08:19:43;100789.97;;;15.52;100.00
13734;BME280;43298;52.560;13.508;2023-01-01T08:22:14;100781.22;;;15.39;100.00
13734;BME280;43298;52.560;13.508;2023-01-01T08:24:40;100779.06;;;15.46;100.00
13734;BME280;43298;52.560;13.508;2023-01-01T08:27:06;100775.56;;;15.47;100.00
13734;BME280;43298;52.560;13.508;2023-01-01T08:29:32;100785.69;;;15.51;100.00
13734;BME280;43298;52.560;13.508;2023-01-01T08:31:58;100786.53;;;15.52;100.00
13734;BME280;43298;52.560;13.508;2023-01-01T08:34:23;100787.28;;;15.54;100.00
13734;BME280;43298;52.560;13.508;2023-01-01T08:36:49;100790.91;;;15.51;100.00
13734;BME280;43298;52.560;13.508;2023-01-01T08:39:15;100802.34;;;15.63;100.00
13734;BME280;43298;52.560;13.508;2023-01-01T08:41:41;100811.78;;;15.51;100.00
13734;BME280;43298;52.560;13.508;2023-01-01T08:44:07;100814.38;;;15.51;100.00
13734;BME280;43298;52.560;13.508;2023-01-01T08:46:33;100809.03;;;15.53;100.00
13734;BME280;43298;52.560;13.508;2023-01-01T08:48:58;100811.47;;;15.56;100.00
13734;BME280;43298;52.560;13.508;2023-01-01T08:51:24;100809.03;;;15.53;100.00
13734;BME280;43298;52.560;13.508;2023-01-01T08:53:50;100819.69;;;15.64;100.00
13734;BME280;43298;52.560;13.508;2023-01-01T08:56:16;100817.97;;;15.49;100.00
13734;BME280;43298;52.560;13.508;2023-01-01T08:58:42;100827.75;;;15.45;100.00
13734;BME280;43298;52.560;13.508;2023-01-01T09:01:09;100827.75;;;15.45;100.00
13734;BME280;43298;52.560;13.508;2023-01-01T09:03:36;100824.50;;;15.42;100.00
13734;BME280;43298;52.560;13.508;2023-01-01T09:06:02;100826.47;;;15.52;100.00
13734;BME280;43298;52.560;13.508;2023-01-01T09:08:28;100831.59;;;15.54;100.00
13734;BME280;43298;52.560;13.508;2023-01-01T09:11:00;100831.78;;;15.51;100.00
13734;BME280;43298;52.560;13.508;2023-01-01T09:13:27;100845.91;;;15.47;100.00
13734;BME280;43298;52.560;13.508;2023-01-01T09:15:53;100842.03;;;15.54;100.00
13734;BME280;43298;52.560;13.508;2023-01-01T09:18:19;100846.66;;;15.63;100.00
13734;BME280;43298;52.560;13.508;2023-01-01T09:20:45;100856.28;;;15.62;100.00
13734;BME280;43298;52.560;13.508;2023-01-01T09:23:12;100856.53;;;15.58;100.00
13734;BME280;43298;52.560;13.508;2023-01-01T09:25:38;100859.69;;;15.63;100.00
13734;BME280;43298;52.560;13.508;2023-01-01T09:28:10;100868.44;;;15.62;100.00
13734;BME280;43298;52.560;13.508;2023-01-01T09:30:37;100873.56;;;15.63;100.00
13734;BME280;43298;52.560;13.508;2023-01-01T09:33:03;100868.91;;;15.68;100.00
13734;BME280;43298;52.560;13.508;2023-01-01T09:35:29;100873.13;;;15.71;100.00
13734;BME280;43298;52.560;13.508;2023-01-01T09:37:56;100868.00;;;15.69;100.00
13734;BME280;43298;52.560;13.508;2023-01-01T09:46:23;100873.09;;;15.85;100.00
13734;BME280;43298;52.560;13.508;2023-01-01T09:49:04;100871.06;;;15.90;100.00
13734;BME280;43298;52.560;13.508;2023-01-01T09:51:35;100874.97;;;15.97;100.00
13734;BME280;43298;52.560;13.508;2023-01-01T09:54:28;100872.19;;;16.00;100.00
13734;BME280;43298;52.560;13.508;2023-01-01T09:57:00;100875.69;;;15.99;100.00
13734;BME280;43298;52.560;13.508;2023-01-01T09:59:27;100860.38;;;15.94;100.00
13734;BME280;43298;52.560;13.508;2023-01-01T10:02:48;100887.06;;;15.98;100.00
13734;BME280;43298;52.560;13.508;2023-01-01T10:08:26;100873.09;;;15.99;100.00
13734;BME280;43298;52.560;13.508;2023-01-01T10:13:57;100885.41;;;16.11;100.00
13734;BME280;43298;52.560;13.508;2023-01-01T10:16:38;100897.31;;;16.15;100.00
13734;BME280;43298;52.560;13.508;2023-01-01T10:19:57;100902.44;;;16.16;100.00
13734;BME280;43298;52.560;13.508;2023-01-01T10:22:32;100895.44;;;16.17;100.00
13734;BME280;43298;52.560;13.508;2023-01-01T10:27:59;100902.81;;;16.10;100.00
13734;BME280;43298;52.560;13.508;2023-01-01T10:30:28;100893.13;;;16.12;100.00
13734;BME280;43298;52.560;13.508;2023-01-01T10:32:55;100920.03;;;16.13;100.00
13734;BME280;43298;52.560;13.508;2023-01-01T10:35:39;100907.84;;;16.13;100.00
13734;BME280;43298;52.560;13.508;2023-01-01T10:38:06;100919.13;;;16.14;100.00
13734;BME280;43298;52.560;13.508;2023-01-01T10:40:32;100916.72;;;16.11;100.00
13734;BME280;43298;52.560;13.508;2023-01-01T10:43:00;100924.63;;;16.09;100.00
13734;BME280;43298;52.560;13.508;2023-01-01T10:45:47;100917.44;;;16.13;100.00
13734;BME280;43298;52.560;13.508;2023-01-01T10:48:17;100923.97;;;16.06;100.00
13734;BME280;43298;52.560;13.508;2023-01-01T10:56:21;100922.13;;;16.08;100.00
13734;BME280;43298;52.560;13.508;2023-01-01T10:58:54;100931.97;;;16.17;100.00
13734;BME280;43298;52.560;13.508;2023-01-01T11:01:22;100930.41;;;16.14;100.00
13734;BME280;43298;52.560;13.508;2023-01-01T11:06:24;100921.75;;;16.14;100.00
13734;BME280;43298;52.560;13.508;2023-01-01T11:08:54;100928.63;;;16.15;100.00
13734;BME280;43298;52.560;13.508;2023-01-01T11:11:41;100941.59;;;16.16;100.00
13734;BME280;43298;52.560;13.508;2023-01-01T11:14:25;100951.84;;;16.19;100.00
13734;BME280;43298;52.560;13.508;2023-01-01T11:16:53;100947.44;;;16.20;100.00
13734;BME280;43298;52.560;13.508;2023-01-01T11:19:33;100954.34;;;16.21;100.00
13734;BME280;43298;52.560;13.508;2023-01-01T11:22:02;100957.88;;;16.20;100.00
13734;BME280;43298;52.560;13.508;2023-01-01T11:24:31;100963.59;;;16.26;100.00
13734;BME280;43298;52.560;13.508;2023-01-01T11:27:24;100973.72;;;16.31;100.00
13734;BME280;43298;52.560;13.508;2023-01-01T11:29:50;100971.50;;;16.25;100.00
13734;BME280;43298;52.560;13.508;2023-01-01T11:32:33;100963.09;;;16.20;100.00
13734;BME280;43298;52.560;13.508;2023-01-01T11:35:03;100953.50;;;16.20;100.00
13734;BME280;43298;52.560;13.508;2023-01-01T11:37:36;100965.72;;;16.20;100.00
13734;BME280;43298;52.560;13.508;2023-01-01T11:40:13;100942.72;;;16.26;100.00
13734;BME280;43298;52.560;13.508;2023-01-01T11:42:53;100953.59;;;16.33;100.00
13734;BME280;43298;52.560;13.508;2023-01-01T11:45:25;100950.63;;;16.39;100.00
13734;BME280;43298;52.560;13.508;2023-01-01T11:48:03;100948.56;;;16.44;100.00
13734;BME280;43298;52.560;13.508;2023-01-01T11:50:37;100944.28;;;16.43;100.00
13734;BME280;43298;52.560;13.508;2023-01-01T11:56:15;100960.78;;;16.43;100.00
13734;BME280;43298;52.560;13.508;2023-01-01T11:58:56;100969.81;;;16.52;100.00
13734;BME280;43298;52.560;13.508;2023-01-01T12:07:01;100973.84;;;16.43;100.00
13734;BME280;43298;52.560;13.508;2023-01-01T12:10:27;100978.22;;;16.43;100.00
13734;BME280;43298;52.560;13.508;2023-01-01T12:13:17;100995.34;;;16.33;100.00
13734;BME280;43298;52.560;13.508;2023-01-01T12:18:28;100981.09;;;16.24;100.00
13734;BME280;43298;52.560;13.508;2023-01-01T12:23:36;100999.63;;;16.20;100.00
13734;BME280;43298;52.560;13.508;2023-01-01T12:26:23;100994.72;;;16.15;100.00
13734;BME280;43298;52.560;13.508;2023-01-01T12:48:41;100967.00;;;16.13;100.00
13734;BME280;43298;52.560;13.508;2023-01-01T12:57:47;100959.50;;;16.08;100.00
13734;BME280;43298;52.560;13.508;2023-01-01T13:00:19;100977.84;;;16.07;100.00
13734;BME280;43298;52.560;13.508;2023-01-01T13:03:12;100970.91;;;16.06;100.00
13734;BME280;43298;52.560;13.508;2023-01-01T13:05:47;100966.72;;;16.03;100.00
13734;BME280;43298;52.560;13.508;2023-01-01T13:08:15;100971.31;;;16.00;100.00
13734;BME280;43298;52.560;13.508;2023-01-01T13:10:45;100968.63;;;16.01;100.00
13734;BME280;43298;52.560;13.508;2023-01-01T13:13:13;100975.13;;;15.94;100.00
13734;BME280;43298;52.560;13.508;2023-01-01T13:18:33;100981.06;;;15.96;100.00
13734;BME280;43298;52.560;13.508;2023-01-01T13:21:21;100974.63;;;15.88;100.00
13734;BME280;43298;52.560;13.508;2023-01-01T13:23:51;100987.03;;;15.84;100.00
13734;BME280;43298;52.560;13.508;2023-01-01T13:45:02;101036.47;;;15.72;100.00
13734;BME280;43298;52.560;13.508;2023-01-01T13:59:16;101050.69;;;15.66;100.00
13734;BME280;43298;52.560;13.508;2023-01-01T14:07:57;101066.03;;;15.57;100.00
13734;BME280;43298;52.560;13.508;2023-01-01T14:10:35;101078.53;;;15.50;100.00
13734;BME280;43298;52.560;13.508;2023-01-01T14:13:15;101077.28;;;15.42;100.00
13734;BME280;43298;52.560;13.508;2023-01-01T14:18:18;101063.94;;;15.48;100.00
13734;BME280;43298;52.560;13.508;2023-01-01T14:20:49;101072.28;;;15.39;100.00
13734;BME280;43298;52.560;13.508;2023-01-01T14:23:34;101064.00;;;15.31;100.00
13734;BME280;43298;52.560;13.508;2023-01-01T14:26:17;101065.53;;;15.19;100.00
13734;BME280;43298;52.560;13.508;2023-01-01T14:28:44;101070.31;;;15.11;100.00
13734;BME280;43298;52.560;13.508;2023-01-01T14:31:17;101061.50;;;14.98;100.00
13734;BME280;43298;52.560;13.508;2023-01-01T14:33:44;101069.22;;;14.99;100.00
13734;BME280;43298;52.560;13.508;2023-01-01T14:36:30;101073.09;;;14.92;100.00
13734;BME280;43298;52.560;13.508;2023-01-01T14:38:58;101079.34;;;14.88;100.00
13734;BME280;43298;52.560;13.508;2023-01-01T14:41:40;101070.38;;;14.78;100.00
13734;BME280;43298;52.560;13.508;2023-01-01T14:44:11;101079.16;;;14.76;100.00
13734;BME280;43298;52.560;13.508;2023-01-01T14:46:48;101076.16;;;14.68;100.00
13734;BME280;43298;52.560;13.508;2023-01-01T14:49:28;101083.31;;;14.47;100.00
13734;BME280;43298;52.560;13.508;2023-01-01T14:52:23;101085.63;;;14.53;100.00
13734;BME280;43298;52.560;13.508;2023-01-01T14:54:50;101085.06;;;14.47;100.00
13734;BME280;43298;52.560;13.508;2023-01-01T14:57:22;101094.81;;;14.43;100.00
13734;BME280;43298;52.560;13.508;2023-01-01T14:59:51;101097.06;;;14.34;100.00
13734;BME280;43298;52.560;13.508;2023-01-01T15:02:27;101094.13;;;14.40;100.00
13734;BME280;43298;52.560;13.508;2023-01-01T15:04:56;101098.81;;;14.33;100.00
13734;BME280;43298;52.560;13.508;2023-01-01T15:07:30;101097.84;;;14.17;100.00
13734;BME280;43298;52.560;13.508;2023-01-01T15:09:58;101090.72;;;14.22;100.00
13734;BME280;43298;52.560;13.508;2023-01-01T15:12:26;101094.34;;;14.01;100.00